Time;durP1;ratioP1;P1;durP2;ratioP2;P2;SDS_P1;SDS_P2;PMS_P1;PMS_P2;Temp;Humidity;BMP_temperature;BMP_pressure;BME280_temperature;BME280_humidity;BME280_pressure;Samples;Min_cycle;Max_cycle;Signal;HPM_P1;HPM_P2
2021/10/31 00:00:05;;;;;;;11.77;7.67;;;12.40;99.90;;;;;;5058048;28;20198;-45
2021/10/31 00:02:38;;;;;;;9.47;7.33;;;12.40;99.90;;;;;;5050279;28;20278;-49
2021/10/31 00:05:08;;;;;;;8.77;7.50;;;12.40;99.90;;;;;;5052632;28;20219;-45
2021/10/31 00:07:35;;;;;;;9.73;7.37;;;12.40;99.90;;;;;;5037046;28;20199;-45
2021/10/31 00:10:02;;;;;;;8.93;7.43;;;12.40;99.90;;;;;;5043074;28;20199;-43
2021/10/31 00:12:28;;;;;;;8.27;7.17;;;12.40;99.90;;;;;;5052215;28;20330;-45
2021/10/31 00:14:55;;;;;;;8.17;7.20;;;12.30;99.90;;;;;;5059155;28;20280;-45
2021/10/31 00:17:22;;;;;;;13.33;7.87;;;12.40;99.90;;;;;;5048641;28;20204;-46
2021/10/31 00:19:48;;;;;;;7.73;6.80;;;12.40;99.90;;;;;;5044304;28;20199;-46
2021/10/31 00:22:16;;;;;;;12.03;8.23;;;12.40;99.90;;;;;;5049351;28;20209;-49
2021/10/31 00:24:43;;;;;;;10.07;8.00;;;12.30;99.90;;;;;;5033115;28;20219;-47
2021/10/31 00:27:10;;;;;;;9.57;7.80;;;12.30;99.90;;;;;;5038111;28;20202;-44
2021/10/31 00:29:36;;;;;;;10.70;7.67;;;12.40;99.90;;;;;;5043411;28;20248;-47
2021/10/31 00:32:03;;;;;;;10.37;8.43;;;12.40;99.90;;;;;;5055186;28;20209;-44
2021/10/31 00:34:30;;;;;;;8.57;7.67;;;12.40;99.90;;;;;;5048217;28;20218;-47
2021/10/31 00:36:57;;;;;;;10.57;8.80;;;12.40;99.90;;;;;;5050471;28;20245;-44
2021/10/31 00:39:25;;;;;;;11.20;8.17;;;12.40;99.90;;;;;;5039230;28;20211;-47
2021/10/31 00:41:52;;;;;;;9.17;7.37;;;12.40;99.90;;;;;;5054278;28;20384;-45
2021/10/31 00:44:19;;;;;;;9.77;8.03;;;12.40;99.90;;;;;;5046121;28;20858;-46
2021/10/31 00:46:45;;;;;;;10.97;8.50;;;12.40;99.90;;;;;;5046686;28;20722;-47
2021/10/31 00:49:12;;;;;;;9.57;8.40;;;12.40;99.90;;;;;;5052615;28;20198;-43
2021/10/31 00:51:39;;;;;;;10.03;8.63;;;12.40;99.90;;;;;;5055099;28;20207;-44
2021/10/31 00:54:06;;;;;;;10.20;7.67;;;12.40;99.90;;;;;;5036431;28;20223;-43
2021/10/31 00:56:35;;;;;;;13.73;8.80;;;12.40;99.90;;;;;;5046583;28;20219;-46
2021/10/31 00:59:02;;;;;;;10.33;8.43;;;12.40;99.90;;;;;;5056720;28;20663;-44
2021/10/31 01:01:29;;;;;;;10.90;9.27;;;12.40;99.90;;;;;;5054509;28;20186;-45
2021/10/31 01:03:56;;;;;;;9.80;8.63;;;12.40;99.90;;;;;;5046320;28;20219;-46
2021/10/31 01:06:45;;;;;;;12.47;9.63;;;12.40;99.90;;;;;;5048487;28;20667;-43
2021/10/31 01:09:20;;;;;;;10.23;8.63;;;12.40;99.90;;;;;;5054315;28;20285;-43
2021/10/31 01:12:06;;;;;;;12.43;10.07;;;12.30;99.90;;;;;;5036784;28;20925;-47
2021/10/31 01:14:46;;;;;;;10.70;9.60;;;12.30;99.90;;;;;;5044565;28;20223;-44
2021/10/31 01:17:30;;;;;;;10.40;8.40;;;12.30;99.90;;;;;;5046047;28;20679;-46
2021/10/31 01:20:09;;;;;;;11.07;9.53;;;12.30;99.90;;;;;;5050531;28;20937;-45
2021/10/31 01:22:50;;;;;;;11.50;8.70;;;12.20;99.90;;;;;;5056404;28;20196;-44
2021/10/31 01:25:40;;;;;;;13.40;9.83;;;12.20;99.90;;;;;;5040905;28;20227;-43
2021/10/31 01:28:22;;;;;;;11.13;9.17;;;12.30;99.90;;;;;;5047971;28;20522;-43
2021/10/31 01:31:01;;;;;;;10.17;8.47;;;12.20;99.90;;;;;;5058020;28;20187;-49
2021/10/31 01:33:39;;;;;;;11.80;8.80;;;12.20;99.90;;;;;;5056535;28;20209;-43
2021/10/31 01:36:12;;;;;;;12.27;9.20;;;12.20;99.90;;;;;;5061351;28;20210;-47
2021/10/31 01:38:47;;;;;;;11.97;9.53;;;12.30;99.90;;;;;;5047905;28;20206;-43
2021/10/31 01:41:17;;;;;;;16.57;9.70;;;12.20;99.90;;;;;;5041523;28;20225;-47
2021/10/31 01:43:57;;;;;;;12.30;9.40;;;12.20;99.90;;;;;;5054113;28;20199;-44
2021/10/31 01:46:34;;;;;;;10.67;9.20;;;12.20;99.90;;;;;;5052767;28;20200;-44
2021/10/31 01:49:08;;;;;;;12.20;9.57;;;12.20;99.90;;;;;;5050179;28;20513;-47
2021/10/31 01:51:40;;;;;;;12.00;9.27;;;12.20;99.90;;;;;;5044329;28;20212;-43
2021/10/31 01:54:13;;;;;;;11.73;9.73;;;12.10;99.90;;;;;;5051123;28;20250;-44
2021/10/31 01:56:44;;;;;;;12.83;9.60;;;12.20;99.90;;;;;;5037712;28;20229;-49
2021/10/31 01:59:19;;;;;;;12.50;9.53;;;12.20;99.90;;;;;;5052542;28;20297;-44
2021/10/31 02:01:46;;;;;;;11.40;9.50;;;12.10;99.90;;;;;;5057333;28;20209;-47
2021/10/31 02:04:15;;;;;;;10.80;9.33;;;12.20;99.90;;;;;;5054871;28;20775;-45
2021/10/31 02:06:45;;;;;;;13.67;9.97;;;12.10;99.90;;;;;;5057289;28;20187;-44
2021/10/31 02:09:13;;;;;;;13.47;9.90;;;12.10;99.90;;;;;;5058009;28;20668;-44
2021/10/31 02:11:42;;;;;;;15.17;10.40;;;12.10;99.90;;;;;;5038751;28;20207;-43
2021/10/31 02:14:13;;;;;;;14.83;9.97;;;12.10;99.90;;;;;;5050480;28;20226;-43
2021/10/31 02:16:41;;;;;;;14.03;10.83;;;12.10;99.90;;;;;;5049228;28;20305;-45
2021/10/31 02:19:14;;;;;;;13.03;11.27;;;12.00;99.90;;;;;;5054443;28;20207;-43
2021/10/31 02:21:41;;;;;;;14.23;9.97;;;12.10;99.90;;;;;;5043529;28;20209;-44
2021/10/31 02:24:10;;;;;;;12.63;10.30;;;12.00;99.90;;;;;;5052318;28;20237;-43
2021/10/31 02:26:37;;;;;;;15.37;11.20;;;12.00;99.90;;;;;;5054038;28;20183;-45
2021/10/31 02:29:07;;;;;;;12.93;10.63;;;12.00;99.90;;;;;;5032658;28;20292;-43
2021/10/31 02:31:35;;;;;;;14.17;11.03;;;12.00;99.90;;;;;;5051328;28;20198;-43
2021/10/31 02:34:02;;;;;;;12.33;10.60;;;12.00;99.90;;;;;;5055506;28;20223;-43
2021/10/31 02:36:29;;;;;;;15.17;10.00;;;12.00;99.90;;;;;;5048014;28;20219;-48
2021/10/31 02:39:00;;;;;;;14.07;11.20;;;12.00;99.90;;;;;;5053776;28;20671;-43
2021/10/31 02:41:29;;;;;;;12.93;10.23;;;12.00;99.90;;;;;;5043764;28;20939;-44
2021/10/31 02:43:55;;;;;;;13.57;10.50;;;12.00;99.90;;;;;;5036353;28;20223;-46
2021/10/31 02:46:23;;;;;;;14.37;10.60;;;12.00;99.90;;;;;;5049648;28;20210;-46
2021/10/31 02:48:50;;;;;;;12.33;10.50;;;12.00;99.90;;;;;;5062725;28;20190;-48
2021/10/31 02:51:22;;;;;;;13.40;10.90;;;12.00;99.90;;;;;;5051192;28;20207;-43
2021/10/31 02:53:56;;;;;;;13.83;11.13;;;12.00;99.90;;;;;;5044350;28;20231;-46
2021/10/31 02:56:26;;;;;;;13.87;10.80;;;12.00;99.90;;;;;;5050833;28;20219;-43
2021/10/31 02:58:59;;;;;;;13.13;10.73;;;12.00;99.90;;;;;;5042299;28;20203;-44
2021/10/31 03:01:29;;;;;;;16.13;11.83;;;12.00;99.90;;;;;;5048937;28;20838;-42
2021/10/31 03:03:57;;;;;;;15.57;12.20;;;12.00;99.90;;;;;;5061606;28;20233;-44
2021/10/31 03:06:25;;;;;;;15.40;11.37;;;12.00;99.90;;;;;;5043702;28;20191;-46
2021/10/31 03:08:51;;;;;;;17.57;12.87;;;12.00;99.90;;;;;;5045525;28;20197;-44
2021/10/31 03:11:20;;;;;;;15.20;12.23;;;12.10;99.90;;;;;;5050044;28;20307;-43
2021/10/31 03:13:47;;;;;;;16.53;12.63;;;12.10;99.90;;;;;;5042452;28;20632;-43
2021/10/31 03:16:15;;;;;;;15.77;13.20;;;12.10;99.90;;;;;;5031695;28;20231;-45
2021/10/31 03:18:42;;;;;;;15.10;12.77;;;12.10;99.90;;;;;;5058914;28;20198;-44
2021/10/31 03:21:09;;;;;;;15.20;12.87;;;12.20;99.90;;;;;;5046899;28;20191;-45
2021/10/31 03:23:35;;;;;;;15.03;12.10;;;12.20;99.90;;;;;;5047471;28;20214;-43
2021/10/31 03:26:02;;;;;;;14.63;12.40;;;12.20;99.90;;;;;;5052585;28;20202;-45
2021/10/31 03:28:29;;;;;;;15.07;12.87;;;12.20;99.90;;;;;;5055509;28;20196;-43
2021/10/31 03:30:56;;;;;;;15.37;12.93;;;12.20;99.90;;;;;;5036123;28;20203;-45
2021/10/31 03:33:24;;;;;;;15.43;12.93;;;12.20;99.90;;;;;;5052118;28;20199;-45
2021/10/31 03:35:51;;;;;;;22.23;14.17;;;12.20;99.90;;;;;;5052152;28;20215;-47
2021/10/31 03:38:18;;;;;;;16.40;13.30;;;12.20;99.90;;;;;;5050185;28;20199;-47
2021/10/31 03:40:45;;;;;;;17.73;13.37;;;12.20;99.90;;;;;;5049414;28;20679;-43
2021/10/31 03:43:12;;;;;;;16.80;13.80;;;12.20;99.90;;;;;;5058362;28;20203;-45
2021/10/31 03:45:40;;;;;;;18.87;13.90;;;12.20;99.90;;;;;;5026044;28;20649;-44
2021/10/31 03:48:07;;;;;;;17.80;13.80;;;12.20;99.90;;;;;;5048582;28;20195;-46
2021/10/31 03:50:35;;;;;;;16.73;13.83;;;12.20;99.90;;;;;;5051316;28;20278;-46
2021/10/31 03:53:02;;;;;;;17.97;14.03;;;12.20;99.90;;;;;;5057601;28;20427;-47
2021/10/31 03:55:28;;;;;;;18.50;14.77;;;12.20;99.90;;;;;;5054220;28;20227;-43
2021/10/31 03:57:56;;;;;;;18.43;14.57;;;12.20;99.90;;;;;;5046407;28;20195;-43
2021/10/31 04:00:24;;;;;;;19.03;14.33;;;12.20;99.90;;;;;;5055452;28;20203;-45
2021/10/31 04:02:51;;;;;;;16.67;12.97;;;12.20;99.90;;;;;;5029070;28;20207;-44
2021/10/31 04:05:17;;;;;;;17.07;14.37;;;12.20;99.90;;;;;;5059237;28;20222;-45
2021/10/31 04:07:47;;;;;;;18.30;14.53;;;12.20;99.90;;;;;;5050371;28;20215;-44
2021/10/31 04:10:14;;;;;;;23.47;15.00;;;12.20;99.90;;;;;;5050277;28;20231;-45
2021/10/31 04:12:40;;;;;;;21.33;14.83;;;12.20;99.90;;;;;;5050924;28;20200;-44
2021/10/31 04:15:08;;;;;;;19.70;15.43;;;12.20;99.90;;;;;;5053571;28;20233;-45
2021/10/31 04:17:34;;;;;;;17.77;14.40;;;12.30;99.90;;;;;;5033078;28;20714;-43
2021/10/31 04:20:01;;;;;;;19.73;14.87;;;12.20;99.90;;;;;;5055364;28;20195;-43
2021/10/31 04:22:28;;;;;;;19.77;15.57;;;12.20;99.90;;;;;;5057257;28;20252;-43
2021/10/31 04:24:58;;;;;;;17.47;14.83;;;12.20;99.90;;;;;;5039989;28;20245;-45
2021/10/31 04:27:24;;;;;;;18.60;14.40;;;12.10;99.90;;;;;;5058542;28;20277;-44
2021/10/31 04:29:51;;;;;;;18.17;14.03;;;12.10;99.90;;;;;;5047501;28;20195;-47
2021/10/31 04:32:18;;;;;;;17.20;15.33;;;12.10;99.90;;;;;;5036020;28;20206;-43
2021/10/31 04:34:44;;;;;;;19.20;16.03;;;12.10;99.90;;;;;;5046502;28;20226;-43
2021/10/31 04:37:11;;;;;;;21.30;15.77;;;12.10;99.90;;;;;;5050883;28;20223;-43
2021/10/31 04:39:41;;;;;;;20.93;16.63;;;12.10;99.90;;;;;;5047734;28;20202;-47
2021/10/31 04:42:10;;;;;;;24.37;17.07;;;12.10;99.90;;;;;;5044105;28;20203;-45
2021/10/31 04:44:38;;;;;;;20.70;16.03;;;12.00;99.90;;;;;;5041631;28;20228;-43
2021/10/31 04:47:06;;;;;;;20.90;16.53;;;12.10;99.90;;;;;;5062038;28;20302;-47
2021/10/31 04:49:33;;;;;;;23.73;17.17;;;12.10;99.90;;;;;;5038091;28;20203;-46
2021/10/31 04:52:00;;;;;;;22.07;16.87;;;12.10;99.90;;;;;;5058751;28;20804;-44
2021/10/31 04:54:27;;;;;;;22.73;16.87;;;12.10;99.90;;;;;;5049401;28;20238;-45
2021/10/31 04:56:53;;;;;;;22.23;16.57;;;12.10;99.90;;;;;;5061431;28;20226;-45
2021/10/31 04:59:21;;;;;;;20.60;16.43;;;12.10;99.90;;;;;;5056645;28;20198;-44
2021/10/31 05:01:49;;;;;;;22.13;16.53;;;12.10;99.90;;;;;;5047094;28;20212;-44
2021/10/31 05:04:17;;;;;;;24.20;17.07;;;12.10;99.90;;;;;;5039866;28;20223;-43
2021/10/31 05:06:44;;;;;;;23.20;16.97;;;12.20;99.90;;;;;;5046274;28;20191;-44
2021/10/31 05:09:10;;;;;;;24.23;18.07;;;12.20;99.90;;;;;;5052328;28;20198;-43
2021/10/31 05:11:37;;;;;;;23.70;17.80;;;12.20;99.90;;;;;;5050776;28;20190;-43
2021/10/31 05:14:04;;;;;;;26.13;18.43;;;12.20;99.90;;;;;;5050619;28;20224;-43
2021/10/31 05:16:32;;;;;;;24.27;18.13;;;12.20;99.90;;;;;;5041614;28;20211;-43
2021/10/31 05:18:59;;;;;;;25.57;18.30;;;12.20;99.90;;;;;;5053880;28;20199;-45
2021/10/31 05:21:26;;;;;;;23.80;18.60;;;12.30;99.90;;;;;;5037493;28;20204;-43
2021/10/31 05:23:52;;;;;;;24.73;18.03;;;12.20;99.90;;;;;;5039402;28;20223;-43
2021/10/31 05:26:19;;;;;;;23.60;18.27;;;12.20;99.90;;;;;;5040018;28;20200;-45
2021/10/31 05:28:46;;;;;;;19.53;16.67;;;12.20;99.90;;;;;;5050643;28;20933;-44
2021/10/31 05:31:13;;;;;;;21.33;16.93;;;12.30;99.90;;;;;;5054000;28;20206;-43
2021/10/31 05:33:41;;;;;;;19.07;16.57;;;12.30;99.90;;;;;;5054645;28;20920;-46
2021/10/31 05:36:08;;;;;;;21.57;17.13;;;12.30;99.90;;;;;;5037395;28;20250;-46
2021/10/31 05:38:35;;;;;;;22.27;16.67;;;12.20;99.90;;;;;;5049795;28;20191;-46
2021/10/31 05:41:03;;;;;;;22.67;16.00;;;12.20;99.90;;;;;;5050070;28;20695;-45
2021/10/31 05:43:30;;;;;;;22.77;16.20;;;12.20;99.90;;;;;;5049838;28;20203;-44
2021/10/31 05:45:57;;;;;;;22.13;17.13;;;12.20;99.90;;;;;;5061205;28;20709;-44
2021/10/31 05:48:24;;;;;;;20.07;15.53;;;12.20;99.90;;;;;;5053434;28;20226;-43
2021/10/31 05:50:53;;;;;;;22.97;16.30;;;12.10;99.90;;;;;;5041928;28;20207;-43
2021/10/31 05:53:21;;;;;;;22.60;16.83;;;12.10;99.90;;;;;;5052197;28;20225;-45
2021/10/31 05:55:47;;;;;;;20.73;16.43;;;12.10;99.90;;;;;;5045037;28;20244;-43
2021/10/31 05:58:14;;;;;;;21.70;16.53;;;12.10;99.90;;;;;;5052721;28;20215;-43
2021/10/31 06:00:41;;;;;;;21.00;16.20;;;12.10;99.90;;;;;;5045618;28;20207;-46
2021/10/31 06:03:07;;;;;;;18.20;15.47;;;12.00;99.90;;;;;;5054181;28;20210;-45
2021/10/31 06:05:34;;;;;;;20.07;15.73;;;12.00;99.90;;;;;;5035521;28;20382;-44
2021/10/31 06:08:02;;;;;;;24.97;16.67;;;12.00;99.90;;;;;;5053853;28;20207;-44
2021/10/31 06:10:29;;;;;;;21.50;15.37;;;11.90;99.90;;;;;;5047014;28;20247;-43
2021/10/31 06:12:55;;;;;;;17.93;15.37;;;11.90;99.90;;;;;;5049328;28;20698;-43
2021/10/31 06:15:23;;;;;;;20.33;16.53;;;11.90;99.90;;;;;;5045774;28;20227;-45
2021/10/31 06:17:51;;;;;;;19.33;14.97;;;11.80;99.90;;;;;;5056053;28;20255;-45
2021/10/31 06:20:18;;;;;;;18.87;14.90;;;11.80;99.90;;;;;;5043094;28;20195;-43
2021/10/31 06:22:44;;;;;;;18.73;15.20;;;11.80;99.90;;;;;;5033922;28;20580;-45
2021/10/31 06:25:13;;;;;;;19.97;15.63;;;11.80;99.90;;;;;;5041670;28;20222;-44
2021/10/31 06:27:39;;;;;;;19.77;15.33;;;11.70;99.90;;;;;;5047657;28;20576;-48
2021/10/31 06:30:07;;;;;;;21.80;15.87;;;11.70;99.90;;;;;;5053789;28;20632;-43
2021/10/31 06:32:34;;;;;;;18.73;15.40;;;11.70;99.90;;;;;;5044891;28;20207;-43
2021/10/31 06:35:01;;;;;;;19.23;15.27;;;11.70;99.90;;;;;;5056188;28;20572;-48
2021/10/31 06:37:28;;;;;;;19.93;15.30;;;11.70;99.90;;;;;;5024910;28;20218;-43
2021/10/31 06:39:56;;;;;;;17.93;15.27;;;11.70;99.90;;;;;;5042911;28;20203;-45
2021/10/31 06:42:26;;;;;;;19.43;14.80;;;11.70;99.90;;;;;;5039640;28;20623;-43
2021/10/31 06:44:53;;;;;;;19.43;14.73;;;11.70;99.90;;;;;;5059505;28;20280;-44
2021/10/31 06:47:20;;;;;;;19.47;15.07;;;11.70;99.90;;;;;;5041572;28;20291;-46
2021/10/31 06:49:47;;;;;;;17.73;14.30;;;11.70;99.90;;;;;;5056999;28;20602;-45
2021/10/31 06:52:14;;;;;;;20.27;14.93;;;11.70;99.90;;;;;;5040034;28;20202;-42
2021/10/31 06:54:40;;;;;;;18.70;14.77;;;11.70;99.90;;;;;;5049488;28;20214;-43
2021/10/31 06:57:07;;;;;;;17.87;14.93;;;11.80;99.90;;;;;;5045231;28;20215;-44
2021/10/31 06:59:35;;;;;;;19.37;14.53;;;11.70;99.90;;;;;;5045019;28;20191;-44
2021/10/31 07:02:02;;;;;;;18.67;14.00;;;11.80;99.90;;;;;;5048479;28;20676;-43
2021/10/31 07:04:30;;;;;;;17.30;14.47;;;11.70;99.90;;;;;;5042620;28;20240;-43
2021/10/31 07:06:57;;;;;;;18.43;15.20;;;11.70;99.90;;;;;;5033034;28;20599;-46
2021/10/31 07:09:23;;;;;;;18.53;14.53;;;11.70;99.90;;;;;;5041966;28;20195;-45
2021/10/31 07:11:50;;;;;;;19.43;14.73;;;11.70;99.90;;;;;;5036728;28;20199;-43
2021/10/31 07:14:17;;;;;;;18.77;14.77;;;11.70;99.90;;;;;;5046631;28;20218;-46
2021/10/31 07:16:45;;;;;;;20.07;13.87;;;11.70;99.90;;;;;;5050106;28;20329;-45
2021/10/31 07:19:11;;;;;;;20.47;15.00;;;11.80;99.90;;;;;;5046105;28;20214;-45
2021/10/31 07:21:39;;;;;;;18.20;14.67;;;11.70;99.90;;;;;;5035937;28;21972;-43
2021/10/31 07:24:06;;;;;;;19.87;14.33;;;11.80;99.90;;;;;;5048100;28;20238;-43
2021/10/31 07:26:33;;;;;;;19.57;14.87;;;11.80;99.90;;;;;;5031206;28;20194;-45
2021/10/31 07:29:00;;;;;;;19.57;15.27;;;11.80;99.90;;;;;;5045735;28;20211;-43
2021/10/31 07:31:30;;;;;;;19.00;14.07;;;11.80;99.90;;;;;;5039063;28;20198;-43
2021/10/31 07:33:59;;;;;;;17.23;13.57;;;11.80;99.90;;;;;;5046345;28;20219;-43
2021/10/31 07:36:26;;;;;;;20.23;15.13;;;11.80;99.90;;;;;;5045419;28;20190;-43
2021/10/31 07:38:52;;;;;;;19.13;15.63;;;11.80;99.90;;;;;;5037419;28;21194;-44
2021/10/31 07:41:20;;;;;;;19.30;14.67;;;11.80;99.90;;;;;;5045343;28;20209;-43
2021/10/31 07:43:47;;;;;;;18.07;13.50;;;11.80;99.90;;;;;;5053510;28;20210;-43
2021/10/31 07:46:13;;;;;;;20.50;15.27;;;11.80;99.90;;;;;;5055403;28;20202;-46
2021/10/31 07:48:40;;;;;;;17.60;14.43;;;11.80;99.90;;;;;;5038258;28;20195;-43
2021/10/31 07:51:09;;;;;;;17.17;14.47;;;11.80;99.90;;;;;;5056692;28;20565;-44
2021/10/31 07:53:39;;;;;;;19.93;13.90;;;11.80;99.90;;;;;;5038138;28;20370;-44
2021/10/31 07:56:07;;;;;;;18.17;13.93;;;11.80;99.90;;;;;;5042059;28;20211;-43
2021/10/31 07:58:34;;;;;;;21.40;15.33;;;11.80;99.90;;;;;;5039384;28;20301;-46
2021/10/31 08:01:00;;;;;;;20.33;13.90;;;11.80;99.90;;;;;;5056607;28;20212;-45
2021/10/31 08:03:27;;;;;;;16.73;14.27;;;11.80;99.90;;;;;;5050057;28;20376;-46
2021/10/31 08:05:54;;;;;;;18.40;14.30;;;11.80;99.90;;;;;;5057683;28;20210;-45
2021/10/31 08:08:22;;;;;;;18.57;15.00;;;11.90;99.90;;;;;;5057149;28;20198;-45
2021/10/31 08:10:49;;;;;;;18.70;14.17;;;12.00;99.90;;;;;;5034750;28;20210;-44
2021/10/31 08:13:20;;;;;;;15.93;14.23;;;12.10;99.90;;;;;;5043452;28;20214;-43
2021/10/31 08:15:47;;;;;;;15.63;13.40;;;12.30;99.90;;;;;;5052356;28;20225;-43
2021/10/31 08:18:14;;;;;;;17.80;13.43;;;12.30;99.90;;;;;;5041175;28;20225;-43
2021/10/31 08:20:40;;;;;;;18.53;13.30;;;12.40;99.90;;;;;;5042268;28;20198;-43
2021/10/31 08:23:07;;;;;;;16.83;12.63;;;12.50;99.90;;;;;;5043478;28;20676;-43
2021/10/31 08:25:35;;;;;;;20.73;13.53;;;12.50;99.90;;;;;;5031373;28;20223;-43
2021/10/31 08:28:04;;;;;;;14.67;12.73;;;12.50;99.90;;;;;;5055378;28;20198;-44
2021/10/31 08:30:32;;;;;;;18.63;13.93;;;12.60;99.90;;;;;;5055414;28;20213;-43
2021/10/31 08:33:05;;;;;;;15.17;13.03;;;12.70;99.90;;;;;;5049303;28;20874;-45
2021/10/31 08:35:33;;;;;;;13.60;12.20;;;12.80;99.90;;;;;;5051000;28;20298;-45
2021/10/31 08:37:59;;;;;;;15.27;13.07;;;12.80;99.90;;;;;;5053859;28;20643;-44
2021/10/31 08:40:26;;;;;;;17.50;13.33;;;12.90;99.90;;;;;;5026323;28;20214;-45
2021/10/31 08:42:54;;;;;;;15.37;11.50;;;13.00;99.90;;;;;;5051019;28;20202;-43
2021/10/31 08:45:20;;;;;;;14.20;12.57;;;13.10;99.90;;;;;;5042941;28;20215;-46
2021/10/31 08:47:47;;;;;;;15.07;12.20;;;13.10;99.90;;;;;;5052615;28;20205;-44
2021/10/31 08:50:14;;;;;;;14.47;11.33;;;13.10;99.90;;;;;;5055835;28;20209;-44
2021/10/31 08:52:42;;;;;;;14.47;11.53;;;13.10;99.90;;;;;;5045390;28;20210;-46
2021/10/31 08:55:09;;;;;;;19.00;11.83;;;13.20;99.90;;;;;;5043268;28;20309;-43
2021/10/31 08:57:36;;;;;;;14.47;11.07;;;;;;;;;;5037672;28;20229;-45
2021/10/31 09:00:06;;;;;;;13.70;11.17;;;13.30;99.90;;;;;;5041272;28;20199;-43
2021/10/31 09:02:32;;;;;;;12.77;10.93;;;13.40;99.90;;;;;;5047054;28;20966;-45
2021/10/31 09:04:59;;;;;;;16.30;10.80;;;13.50;99.90;;;;;;5045786;28;20740;-43
2021/10/31 09:07:26;;;;;;;11.17;9.83;;;13.60;99.90;;;;;;5039752;28;20930;-43
2021/10/31 09:09:53;;;;;;;14.57;10.33;;;13.60;99.90;;;;;;5043079;28;20680;-45
2021/10/31 09:12:20;;;;;;;11.70;9.97;;;;;;;;;;5022675;28;20830;-43
2021/10/31 09:14:46;;;;;;;15.67;10.53;;;13.60;99.90;;;;;;5043601;28;20215;-45
2021/10/31 09:17:14;;;;;;;12.37;9.93;;;13.70;99.90;;;;;;5039308;28;20199;-44
2021/10/31 09:19:41;;;;;;;11.37;10.23;;;13.70;99.90;;;;;;5048215;28;20217;-46
2021/10/31 09:22:08;;;;;;;11.77;9.63;;;13.70;99.90;;;;;;5044075;28;20217;-46
2021/10/31 09:24:35;;;;;;;13.73;9.57;;;13.60;99.90;;;;;;5050651;28;20233;-45
2021/10/31 09:27:03;;;;;;;11.83;9.20;;;13.60;99.90;;;;;;5040538;28;20203;-44
2021/10/31 09:29:30;;;;;;;11.13;9.43;;;13.60;99.90;;;;;;5038337;28;20197;-47
2021/10/31 09:31:58;;;;;;;13.77;10.20;;;13.60;99.90;;;;;;5044796;28;20260;-46
2021/10/31 09:34:28;;;;;;;13.13;10.40;;;13.60;99.90;;;;;;5056049;28;20207;-45
2021/10/31 09:36:54;;;;;;;15.10;10.77;;;13.60;99.90;;;;;;5053472;28;20332;-47
2021/10/31 09:39:21;;;;;;;13.83;10.77;;;13.60;99.90;;;;;;5052763;28;20222;-44
2021/10/31 09:41:50;;;;;;;12.17;10.17;;;13.60;99.90;;;;;;5043393;28;20302;-48
2021/10/31 09:44:20;;;;;;;12.83;11.37;;;13.60;99.90;;;;;;5033283;28;21088;-46
2021/10/31 09:46:47;;;;;;;13.80;10.83;;;13.60;99.90;;;;;;5040173;28;20204;-46
2021/10/31 09:49:14;;;;;;;14.23;10.53;;;13.70;99.90;;;;;;5043389;28;20818;-45
2021/10/31 09:51:44;;;;;;;13.13;10.37;;;13.80;99.90;;;;;;5047449;28;20233;-46
2021/10/31 09:54:12;;;;;;;11.30;10.00;;;;;;;;;;5051898;28;20215;-44
2021/10/31 09:56:40;;;;;;;12.37;11.07;;;14.10;99.90;;;;;;5045364;28;20203;-45
2021/10/31 09:59:11;;;;;;;14.33;10.13;;;14.30;99.90;;;;;;5028389;28;20208;-47
2021/10/31 10:01:52;;;;;;;14.10;10.20;;;14.30;99.90;;;;;;5047344;28;20672;-44
2021/10/31 10:04:31;;;;;;;13.63;11.20;;;14.20;99.90;;;;;;5045632;28;20234;-47
2021/10/31 10:07:00;;;;;;;13.70;10.50;;;14.20;99.90;;;;;;5044270;28;20206;-44
2021/10/31 10:09:29;;;;;;;14.00;11.13;;;14.20;99.90;;;;;;5048463;28;20207;-46
2021/10/31 10:11:56;;;;;;;11.80;9.67;;;14.10;99.90;;;;;;5054327;28;20202;-46
2021/10/31 10:14:27;;;;;;;13.83;9.57;;;14.10;99.90;;;;;;5031107;28;20230;-43
2021/10/31 10:16:57;;;;;;;13.40;9.43;;;14.10;99.90;;;;;;5049666;28;20673;-43
2021/10/31 10:19:26;;;;;;;11.47;8.93;;;14.10;99.90;;;;;;5045263;28;20226;-44
2021/10/31 10:21:56;;;;;;;13.80;9.67;;;14.10;99.90;;;;;;5055044;28;20205;-44
2021/10/31 10:24:24;;;;;;;10.37;9.27;;;14.10;99.90;;;;;;5051034;28;20954;-45
2021/10/31 10:26:55;;;;;;;10.43;9.43;;;14.10;99.90;;;;;;5053612;28;20232;-44
2021/10/31 10:29:24;;;;;;;11.43;9.47;;;14.10;99.90;;;;;;5032574;28;20344;-45
2021/10/31 10:31:53;;;;;;;11.00;9.30;;;14.10;99.90;;;;;;5046665;28;20196;-44
2021/10/31 10:34:33;;;;;;;11.30;8.73;;;14.10;99.90;;;;;;5044225;28;20324;-44
2021/10/31 10:37:07;;;;;;;10.37;8.83;;;14.20;99.90;;;;;;5041287;28;20209;-43
2021/10/31 10:39:36;;;;;;;10.67;8.90;;;14.30;99.90;;;;;;5048746;28;20214;-47
2021/10/31 10:42:04;;;;;;;14.10;8.70;;;14.30;99.90;;;;;;5029855;28;20238;-43
2021/10/31 10:44:33;;;;;;;10.43;8.77;;;14.30;99.90;;;;;;5042292;28;20219;-44
2021/10/31 10:47:02;;;;;;;10.00;8.93;;;14.30;99.90;;;;;;5033939;28;20215;-46
2021/10/31 10:49:31;;;;;;;9.63;8.03;;;14.30;99.90;;;;;;5046481;28;20277;-43
2021/10/31 10:52:21;;;;;;;8.67;7.80;;;14.30;99.90;;;;;;5042587;28;20202;-46
2021/10/31 10:54:57;;;;;;;10.47;8.53;;;14.30;99.90;;;;;;5043843;28;20542;-46
2021/10/31 10:57:25;;;;;;;11.37;7.90;;;14.30;99.90;;;;;;5045391;28;20207;-48
2021/10/31 10:59:53;;;;;;;8.83;7.93;;;14.30;99.90;;;;;;5042744;28;20219;-42
2021/10/31 11:02:22;;;;;;;8.57;7.27;;;;;;;;;;5033064;28;20217;-41
2021/10/31 11:04:52;;;;;;;28.03;17.27;;;14.50;99.90;;;;;;5044192;28;20210;-46
2021/10/31 11:07:29;;;;;;;12.07;8.13;;;14.50;99.90;;;;;;5044500;28;20206;-45
2021/10/31 11:09:57;;;;;;;8.50;6.97;;;14.60;99.90;;;;;;5043172;28;20187;-44
2021/10/31 11:12:27;;;;;;;8.73;6.80;;;14.60;99.90;;;;;;5051019;28;20210;-44
2021/10/31 11:14:55;;;;;;;9.37;6.73;;;14.70;99.90;;;;;;5045313;28;20218;-44
2021/10/31 11:17:23;;;;;;;7.97;7.03;;;14.70;99.90;;;;;;5021864;28;20204;-44
2021/10/31 11:19:51;;;;;;;9.00;6.73;;;14.70;99.90;;;;;;5037735;28;20400;-47
2021/10/31 11:22:18;;;;;;;9.63;6.93;;;14.70;99.90;;;;;;5049533;28;20204;-45
2021/10/31 11:24:47;;;;;;;7.97;6.50;;;14.70;99.90;;;;;;5050212;28;20230;-44
2021/10/31 11:27:16;;;;;;;7.77;6.50;;;14.70;99.90;;;;;;5053460;28;20229;-43
2021/10/31 11:29:45;;;;;;;9.77;6.20;;;14.70;99.90;;;;;;5045238;28;20195;-43
2021/10/31 11:32:13;;;;;;;6.97;6.10;;;14.70;99.90;;;;;;5036659;28;20202;-43
2021/10/31 11:34:43;;;;;;;8.73;7.33;;;12.90;99.90;;;;;;5041366;28;20529;-43
2021/10/31 11:37:11;;;;;;;9.50;7.43;;;14.80;99.90;;;;;;5041286;28;21011;-45
2021/10/31 11:39:39;;;;;;;9.30;6.60;;;14.70;99.90;;;;;;5038058;28;20222;-44
2021/10/31 11:42:07;;;;;;;8.37;7.33;;;14.70;99.90;;;;;;5037912;28;20210;-44
2021/10/31 11:45:03;;;;;;;9.90;6.97;;;14.70;99.90;;;;;;5036595;28;20219;-46
2021/10/31 11:47:30;;;;;;;8.10;7.10;;;14.70;99.90;;;;;;5021666;28;20226;-45
2021/10/31 11:50:10;;;;;;;7.20;6.50;;;14.70;99.90;;;;;;5024771;28;20199;-43
2021/10/31 11:52:48;;;;;;;7.17;6.27;;;14.80;99.90;;;;;;5042320;28;20195;-45
2021/10/31 11:55:33;;;;;;;10.27;7.53;;;14.80;99.90;;;;;;5035469;28;20314;-48
2021/10/31 11:58:28;;;;;;;10.27;7.33;;;14.80;99.90;;;;;;5027267;28;20210;-46
2021/10/31 12:01:06;;;;;;;8.73;6.90;;;14.80;99.90;;;;;;5036523;28;20203;-47
2021/10/31 12:03:51;;;;;;;7.53;6.83;;;14.90;99.90;;;;;;5028496;28;20274;-47
2021/10/31 12:06:40;;;;;;;10.07;7.30;;;14.90;99.90;;;;;;5035904;28;20197;-43
2021/10/31 12:09:17;;;;;;;9.47;6.70;;;14.80;99.90;;;;;;5036289;28;20199;-45
2021/10/31 12:12:19;;;;;;;8.43;6.60;;;14.80;99.90;;;;;;5031118;28;20198;-44
2021/10/31 12:15:01;;;;;;;8.63;7.00;;;14.90;99.90;;;;;;5044113;28;20655;-44
2021/10/31 12:18:06;;;;;;;10.67;6.93;;;14.90;99.90;;;;;;5048241;28;20281;-47
2021/10/31 12:20:50;;;;;;;7.20;6.50;;;14.90;99.90;;;;;;5020195;28;20207;-44
2021/10/31 12:23:25;;;;;;;7.27;6.50;;;15.00;99.90;;;;;;5038432;28;20747;-46
2021/10/31 12:25:55;;;;;;;6.80;6.10;;;15.60;99.90;;;;;;5034551;28;20231;-44
2021/10/31 12:28:48;;;;;;;8.10;7.23;;;15.10;99.90;;;;;;5039781;28;20199;-44
2021/10/31 12:31:23;;;;;;;9.13;7.80;;;15.00;99.90;;;;;;5010234;28;20353;-44
2021/10/31 12:34:15;;;;;;;7.97;7.17;;;15.10;99.90;;;;;;5047520;28;20364;-44
2021/10/31 12:36:45;;;;;;;8.17;7.17;;;15.10;99.90;;;;;;5033914;28;20217;-46
2021/10/31 12:39:50;;;;;;;7.80;7.07;;;15.20;99.90;;;;;;5023332;28;20227;-46
2021/10/31 12:42:18;;;;;;;8.70;6.83;;;15.30;99.90;;;;;;5033423;28;20214;-44
2021/10/31 12:44:47;;;;;;;7.50;6.80;;;15.40;99.90;;;;;;5034735;28;20223;-46